createdAt,value
2023-05-11T00:02:06.402Z,100273
2023-05-11T00:08:27.832Z,100275
2023-05-11T00:21:22.806Z,100260
2023-05-11T00:27:30.713Z,100254
2023-05-11T00:46:36.401Z,100246
2023-05-11T00:52:42.364Z,100234
2023-05-11T00:58:35.513Z,100243
2023-05-11T01:23:31.990Z,100253
2023-05-11T01:30:00.272Z,100245
2023-05-11T01:36:40.764Z,100249
2023-05-11T01:56:15.996Z,100250
2023-05-11T02:02:51.774Z,100269
2023-05-11T02:16:15.286Z,100271
2023-05-11T02:22:59.869Z,100277
2023-05-11T02:35:58.658Z,100269
2023-05-11T02:55:40.490Z,100270
2023-05-11T03:01:35.702Z,100259
2023-05-11T03:07:29.693Z,100263
2023-05-11T03:13:34.257Z,100259
2023-05-11T03:19:26.456Z,100248
2023-05-11T03:25:28.578Z,100263
2023-05-11T03:31:20.295Z,100261
2023-05-11T03:37:15.497Z,100267
2023-05-11T03:43:08.071Z,100268
2023-05-11T03:49:01.969Z,100257
2023-05-11T03:54:54.769Z,100258
2023-05-11T04:00:47.869Z,100258
2023-05-11T04:06:41.046Z,100260
2023-05-11T04:12:34.496Z,100255
2023-05-11T04:18:31.682Z,100260
2023-05-11T04:24:31.366Z,100260
2023-05-11T04:30:26.844Z,100262
2023-05-11T04:36:20.037Z,100262
2023-05-11T04:42:22.837Z,100272
2023-05-11T04:54:21.222Z,100277
2023-05-11T05:00:12.794Z,100277
2023-05-11T05:06:02.709Z,100291
2023-05-11T05:11:53.736Z,100299
2023-05-11T05:17:44.700Z,100295
2023-05-11T05:23:35.457Z,100299
2023-05-11T05:29:26.536Z,100310
2023-05-11T05:35:19.661Z,100324
2023-05-11T05:41:09.834Z,100317
2023-05-11T05:47:00.814Z,100319
2023-05-11T05:52:50.924Z,100327
2023-05-11T05:58:43.296Z,100328
2023-05-11T06:04:34.041Z,100332
2023-05-11T06:10:25.757Z,100338
2023-05-11T06:16:17.071Z,100334
2023-05-11T06:22:10.924Z,100342
2023-05-11T06:28:01.992Z,100346
2023-05-11T06:33:53.345Z,100331
2023-05-11T06:39:44.639Z,100338
2023-05-11T06:45:36.833Z,100329
2023-05-11T06:51:28.417Z,100345
2023-05-11T06:57:19.566Z,100339
2023-05-11T07:03:10.612Z,100343
2023-05-11T07:09:02.048Z,100336
2023-05-11T07:14:52.966Z,100338
2023-05-11T07:20:44.788Z,100344
2023-05-11T07:26:36.259Z,100345
2023-05-11T07:32:28.876Z,100343
2023-05-11T07:38:20.883Z,100350
2023-05-11T07:44:14.525Z,100349
2023-05-11T07:50:08.227Z,100352
2023-05-11T07:55:59.701Z,100353
2023-05-11T08:01:51.662Z,100347
2023-05-11T08:07:45.557Z,100351
2023-05-11T08:13:36.895Z,100350
2023-05-11T08:19:28.707Z,100347
2023-05-11T08:25:21.260Z,100352
2023-05-11T08:31:11.912Z,100349
2023-05-11T08:37:04.993Z,100348
2023-05-11T08:42:56.693Z,100345
2023-05-11T08:48:50.675Z,100354
2023-05-11T08:54:44.183Z,100350
2023-05-11T09:00:39.251Z,100352
2023-05-11T09:06:31.261Z,100353
2023-05-11T09:12:21.950Z,100359
2023-05-11T09:18:12.923Z,100355
2023-05-11T09:24:05.579Z,100359
2023-05-11T09:29:57.696Z,100355
2023-05-11T09:35:51.876Z,100356
2023-05-11T09:41:45.555Z,100347
2023-05-11T09:47:41.807Z,100347
2023-05-11T09:53:38.176Z,100347
2023-05-11T09:59:30.847Z,100341
2023-05-11T10:05:36.035Z,100342
2023-05-11T10:11:35.044Z,100337
2023-05-11T10:17:25.848Z,100333
2023-05-11T10:23:17.408Z,100321
2023-05-11T10:29:08.049Z,100321
2023-05-11T10:34:57.814Z,100317
2023-05-11T10:40:47.633Z,100315
2023-05-11T10:46:36.108Z,100313
2023-05-11T10:52:26.017Z,100312
2023-05-11T10:58:19.354Z,100307
2023-05-11T11:04:11.627Z,100309
2023-05-11T11:10:02.650Z,100308
2023-05-11T11:15:55.343Z,100311
2023-05-11T11:22:03.683Z,100303
2023-05-11T11:28:03.636Z,100296
2023-05-11T11:34:12.221Z,100298
2023-05-11T11:40:21.581Z,100294
2023-05-11T11:46:53.856Z,100289
2023-05-11T11:52:59.714Z,100285
2023-05-11T11:58:53.575Z,100300
2023-05-11T12:04:48.179Z,100297
2023-05-11T12:10:40.952Z,100295
2023-05-11T12:16:34.331Z,100287
2023-05-11T12:22:27.122Z,100293
2023-05-11T12:28:22.266Z,100291
2023-05-11T12:34:14.992Z,100280
2023-05-11T12:40:09.243Z,100277
2023-05-11T12:46:01.795Z,100259
2023-05-11T12:51:54.280Z,100261
2023-05-11T12:57:48.213Z,100255
2023-05-11T13:03:44.047Z,100248
2023-05-11T13:09:43.313Z,100254
2023-05-11T13:15:42.867Z,100246
2023-05-11T13:21:36.343Z,100248
2023-05-11T13:27:30.715Z,100248
2023-05-11T13:33:24.025Z,100244
2023-05-11T13:39:23.214Z,100248
2023-05-11T13:45:15.382Z,100240
2023-05-11T13:51:06.630Z,100236
2023-05-11T13:56:56.869Z,100230
2023-05-11T14:02:51.078Z,100227
2023-05-11T14:08:41.935Z,100228
2023-05-11T14:14:33.953Z,100212
2023-05-11T14:20:27.662Z,100218
2023-05-11T14:26:18.396Z,100213
2023-05-11T14:32:12.592Z,100217
2023-05-11T14:38:05.443Z,100216
2023-05-11T14:43:58.840Z,100211
2023-05-11T14:49:52.367Z,100221
2023-05-11T14:55:44.654Z,100215
2023-05-11T15:01:36.399Z,100223
2023-05-11T15:07:28.486Z,100211
2023-05-11T15:13:23.876Z,100220
2023-05-11T15:19:15.782Z,100222
2023-05-11T15:25:09.017Z,100228
2023-05-11T15:31:01.845Z,100225
2023-05-11T15:36:54.241Z,100226
2023-05-11T15:42:46.469Z,100223
2023-05-11T15:48:39.067Z,100226
2023-05-11T15:54:30.470Z,100230
2023-05-11T16:00:26.615Z,100237
2023-05-11T16:06:18.623Z,100234
2023-05-11T16:12:11.250Z,100230
2023-05-11T16:18:07.783Z,100239
2023-05-11T16:24:00.489Z,100232
2023-05-11T16:29:52.720Z,100233
2023-05-11T16:35:46.314Z,100234
2023-05-11T16:41:40.659Z,100223
2023-05-11T16:47:33.552Z,100219
2023-05-11T16:53:26.835Z,100221
2023-05-11T16:59:19.156Z,100234
2023-05-11T17:05:12.857Z,100223
2023-05-11T17:11:06.017Z,100228
2023-05-11T17:16:57.379Z,100225
2023-05-11T17:22:50.385Z,100236
2023-05-11T17:28:41.751Z,100237
2023-05-11T17:34:34.372Z,100235
2023-05-11T17:40:27.645Z,100233
2023-05-11T17:46:20.048Z,100252
2023-05-11T17:52:12.052Z,100254
2023-05-11T17:58:04.433Z,100248
2023-05-11T18:03:57.869Z,100254
2023-05-11T18:09:51.453Z,100261
2023-05-11T18:15:43.775Z,100267
2023-05-11T18:21:35.418Z,100265
2023-05-11T18:27:27.924Z,100276
2023-05-11T18:33:20.207Z,100272
2023-05-11T18:39:13.679Z,100268
2023-05-11T18:45:05.189Z,100266
2023-05-11T18:50:59.417Z,100284
2023-05-11T18:56:51.323Z,100283
2023-05-11T19:02:42.934Z,100281
2023-05-11T19:08:36.018Z,100292
2023-05-11T19:14:28.304Z,100303
2023-05-11T19:20:21.650Z,100302
2023-05-11T19:26:13.438Z,100298
2023-05-11T19:32:06.463Z,100300
2023-05-11T19:37:59.047Z,100307
2023-05-11T19:43:51.273Z,100311
2023-05-11T19:49:43.570Z,100316
2023-05-11T19:55:37.668Z,100317
2023-05-11T20:01:29.955Z,100322
2023-05-11T20:07:22.962Z,100323
2023-05-11T20:13:17.939Z,100323
2023-05-11T20:19:10.876Z,100328
2023-05-11T20:25:04.733Z,100325
2023-05-11T20:31:06.632Z,100311
2023-05-11T20:38:06.423Z,100317
2023-05-11T20:43:57.377Z,100311
2023-05-11T20:49:54.669Z,100309
2023-05-11T20:55:48.750Z,100311
2023-05-11T21:01:44.646Z,100317
2023-05-11T21:07:37.838Z,100307
2023-05-11T21:13:30.332Z,100308
2023-05-11T21:19:22.584Z,100307
2023-05-11T21:25:15.752Z,100302
2023-05-11T21:31:08.575Z,100301
2023-05-11T21:37:00.989Z,100299
2023-05-11T21:42:53.558Z,100297
2023-05-11T21:48:47.235Z,100299
2023-05-11T21:54:40.929Z,100292
2023-05-11T22:00:33.170Z,100290
2023-05-11T22:06:25.618Z,100291
2023-05-11T22:12:18.514Z,100292
2023-05-11T22:18:12.090Z,100283
2023-05-11T22:24:09.016Z,100284
2023-05-11T22:30:09.106Z,100281
2023-05-11T22:36:01.373Z,100282
2023-05-11T22:41:53.641Z,100284
2023-05-11T22:47:45.225Z,100286
2023-05-11T22:53:35.198Z,100288
2023-05-11T22:59:25.347Z,100291
2023-05-11T23:05:18.102Z,100287
2023-05-11T23:11:09.069Z,100275
2023-05-11T23:17:06.635Z,100268
2023-05-11T23:23:02.833Z,100276
2023-05-11T23:28:56.952Z,100272
2023-05-11T23:34:46.649Z,100254
2023-05-11T23:40:38.213Z,100261
2023-05-11T23:46:31.410Z,100277
2023-05-11T23:52:24.562Z,100263
2023-05-11T23:58:15.844Z,100265
